sensor_id;sensor_type;location;lat;lon;timestamp;temperature;humidity
25652;DHT22;13508;50.734;4.232;2022-08-21T00:02:27;17.30;99.90
25652;DHT22;13508;50.734;4.232;2022-08-21T00:05:33;17.40;99.90
25652;DHT22;13508;50.734;4.232;2022-08-21T00:08:36;17.40;99.90
25652;DHT22;13508;50.734;4.232;2022-08-21T00:11:39;17.40;99.90
25652;DHT22;13508;50.734;4.232;2022-08-21T00:14:43;17.30;99.90
25652;DHT22;13508;50.734;4.232;2022-08-21T00:17:46;17.20;99.90
25652;DHT22;13508;50.734;4.232;2022-08-21T00:20:50;17.10;99.90
25652;DHT22;13508;50.734;4.232;2022-08-21T00:23:53;17.10;99.90
25652;DHT22;13508;50.734;4.232;2022-08-21T00:26:56;17.10;99.90
25652;DHT22;13508;50.734;4.232;2022-08-21T00:30:00;17.00;99.90
25652;DHT22;13508;50.734;4.232;2022-08-21T00:33:06;16.90;99.90
25652;DHT22;13508;50.734;4.232;2022-08-21T00:36:10;17.00;99.90
25652;DHT22;13508;50.734;4.232;2022-08-21T00:39:13;17.00;99.90
25652;DHT22;13508;50.734;4.232;2022-08-21T00:42:17;16.60;99.90
25652;DHT22;13508;50.734;4.232;2022-08-21T00:45:21;16.60;99.90
25652;DHT22;13508;50.734;4.232;2022-08-21T00:48:25;16.60;99.90
25652;DHT22;13508;50.734;4.232;2022-08-21T00:51:35;16.70;99.90
25652;DHT22;13508;50.734;4.232;2022-08-21T00:54:40;16.90;99.90
25652;DHT22;13508;50.734;4.232;2022-08-21T00:57:48;16.80;99.90
25652;DHT22;13508;50.734;4.232;2022-08-21T01:00:52;16.80;99.90
25652;DHT22;13508;50.734;4.232;2022-08-21T01:03:56;16.70;99.90
25652;DHT22;13508;50.734;4.232;2022-08-21T01:06:59;16.60;99.90
25652;DHT22;13508;50.734;4.232;2022-08-21T01:10:05;16.60;99.90
25652;DHT22;13508;50.734;4.232;2022-08-21T01:13:10;16.50;99.90
25652;DHT22;13508;50.734;4.232;2022-08-21T01:16:17;16.50;99.90
25652;DHT22;13508;50.734;4.232;2022-08-21T01:19:22;16.40;99.90
25652;DHT22;13508;50.734;4.232;2022-08-21T01:22:26;16.10;99.90
25652;DHT22;13508;50.734;4.232;2022-08-21T01:25:30;16.30;99.90
25652;DHT22;13508;50.734;4.232;2022-08-21T01:28:42;16.30;99.90
25652;DHT22;13508;50.734;4.232;2022-08-21T01:31:46;16.40;99.90
25652;DHT22;13508;50.734;4.232;2022-08-21T01:34:51;16.20;99.90
25652;DHT22;13508;50.734;4.232;2022-08-21T01:37:55;16.00;99.90
25652;DHT22;13508;50.734;4.232;2022-08-21T01:40:58;15.90;99.90
25652;DHT22;13508;50.734;4.232;2022-08-21T01:44:03;16.10;99.90
25652;DHT22;13508;50.734;4.232;2022-08-21T01:47:09;16.20;99.90
25652;DHT22;13508;50.734;4.232;2022-08-21T01:50:15;16.20;99.90
25652;DHT22;13508;50.734;4.232;2022-08-21T01:53:20;16.10;99.90
25652;DHT22;13508;50.734;4.232;2022-08-21T01:56:23;16.00;99.90
25652;DHT22;13508;50.734;4.232;2022-08-21T01:59:27;16.10;99.90
25652;DHT22;13508;50.734;4.232;2022-08-21T02:02:30;16.10;99.90
25652;DHT22;13508;50.734;4.232;2022-08-21T02:05:33;16.20;99.90
25652;DHT22;13508;50.734;4.232;2022-08-21T02:08:37;16.10;99.90
25652;DHT22;13508;50.734;4.232;2022-08-21T02:11:40;16.20;99.90
25652;DHT22;13508;50.734;4.232;2022-08-21T02:14:44;16.20;99.90
25652;DHT22;13508;50.734;4.232;2022-08-21T02:17:52;16.00;99.90
25652;DHT22;13508;50.734;4.232;2022-08-21T02:20:56;15.80;99.90
25652;DHT22;13508;50.734;4.232;2022-08-21T02:23:59;15.60;99.90
25652;DHT22;13508;50.734;4.232;2022-08-21T02:27:03;15.70;99.90
25652;DHT22;13508;50.734;4.232;2022-08-21T02:30:07;15.80;99.90
25652;DHT22;13508;50.734;4.232;2022-08-21T02:33:11;15.80;99.90
25652;DHT22;13508;50.734;4.232;2022-08-21T02:36:14;15.80;99.90
25652;DHT22;13508;50.734;4.232;2022-08-21T02:39:17;15.80;99.90
25652;DHT22;13508;50.734;4.232;2022-08-21T02:42:20;15.70;99.90
25652;DHT22;13508;50.734;4.232;2022-08-21T02:45:24;15.80;99.90
25652;DHT22;13508;50.734;4.232;2022-08-21T02:48:30;15.70;99.90
25652;DHT22;13508;50.734;4.232;2022-08-21T02:51:33;15.50;99.90
25652;DHT22;13508;50.734;4.232;2022-08-21T02:54:36;15.50;99.90
25652;DHT22;13508;50.734;4.232;2022-08-21T02:57:40;15.60;99.90
25652;DHT22;13508;50.734;4.232;2022-08-21T03:00:43;15.70;99.90
25652;DHT22;13508;50.734;4.232;2022-08-21T03:03:48;15.60;99.90
25652;DHT22;13508;50.734;4.232;2022-08-21T03:06:54;15.70;99.90
25652;DHT22;13508;50.734;4.232;2022-08-21T03:09:57;15.70;99.90
25652;DHT22;13508;50.734;4.232;2022-08-21T03:13:00;15.70;99.90
25652;DHT22;13508;50.734;4.232;2022-08-21T03:16:03;15.60;99.90
25652;DHT22;13508;50.734;4.232;2022-08-21T03:19:07;15.40;99.90
25652;DHT22;13508;50.734;4.232;2022-08-21T03:22:10;15.50;99.90
25652;DHT22;13508;50.734;4.232;2022-08-21T03:25:13;15.30;99.90
25652;DHT22;13508;50.734;4.232;2022-08-21T03:28:20;15.30;99.90
25652;DHT22;13508;50.734;4.232;2022-08-21T03:31:24;15.30;99.90
25652;DHT22;13508;50.734;4.232;2022-08-21T03:34:32;15.40;99.90
25652;DHT22;13508;50.734;4.232;2022-08-21T03:37:35;15.30;99.90
25652;DHT22;13508;50.734;4.232;2022-08-21T03:40:40;15.20;99.90
25652;DHT22;13508;50.734;4.232;2022-08-21T03:43:43;15.20;99.90
25652;DHT22;13508;50.734;4.232;2022-08-21T03:46:46;15.10;99.90
25652;DHT22;13508;50.734;4.232;2022-08-21T03:49:49;15.00;99.90
25652;DHT22;13508;50.734;4.232;2022-08-21T03:52:53;15.00;99.90
25652;DHT22;13508;50.734;4.232;2022-08-21T03:55:56;15.00;99.90
25652;DHT22;13508;50.734;4.232;2022-08-21T03:59:00;15.00;99.90
25652;DHT22;13508;50.734;4.232;2022-08-21T04:02:06;14.90;99.90
25652;DHT22;13508;50.734;4.232;2022-08-21T04:05:11;14.80;99.90
25652;DHT22;13508;50.734;4.232;2022-08-21T04:08:16;14.70;99.90
25652;DHT22;13508;50.734;4.232;2022-08-21T04:11:21;14.70;99.90
25652;DHT22;13508;50.734;4.232;2022-08-21T04:14:25;14.90;99.90
25652;DHT22;13508;50.734;4.232;2022-08-21T04:17:28;14.90;99.90
25652;DHT22;13508;50.734;4.232;2022-08-21T04:20:31;15.00;99.90
25652;DHT22;13508;50.734;4.232;2022-08-21T04:23:36;14.90;99.90
25652;DHT22;13508;50.734;4.232;2022-08-21T04:26:39;14.90;99.90
25652;DHT22;13508;50.734;4.232;2022-08-21T04:29:44;15.00;99.90
25652;DHT22;13508;50.734;4.232;2022-08-21T04:32:49;14.80;99.90
25652;DHT22;13508;50.734;4.232;2022-08-21T04:35:53;14.70;99.90
25652;DHT22;13508;50.734;4.232;2022-08-21T04:38:56;14.60;99.90
25652;DHT22;13508;50.734;4.232;2022-08-21T04:41:59;14.70;99.90
25652;DHT22;13508;50.734;4.232;2022-08-21T04:45:03;14.70;99.90
25652;DHT22;13508;50.734;4.232;2022-08-21T04:48:08;14.70;99.90
25652;DHT22;13508;50.734;4.232;2022-08-21T04:51:17;14.70;99.90
25652;DHT22;13508;50.734;4.232;2022-08-21T04:54:22;14.50;99.90
25652;DHT22;13508;50.734;4.232;2022-08-21T04:57:25;14.50;99.90
25652;DHT22;13508;50.734;4.232;2022-08-21T05:00:29;14.60;99.90
25652;DHT22;13508;50.734;4.232;2022-08-21T05:03:33;14.70;99.90
25652;DHT22;13508;50.734;4.232;2022-08-21T05:06:38;14.70;99.90
25652;DHT22;13508;50.734;4.232;2022-08-21T05:09:43;14.80;99.90
25652;DHT22;13508;50.734;4.232;2022-08-21T05:12:47;15.00;99.90
25652;DHT22;13508;50.734;4.232;2022-08-21T05:15:50;15.00;99.90
25652;DHT22;13508;50.734;4.232;2022-08-21T05:18:54;15.00;99.90
25652;DHT22;13508;50.734;4.232;2022-08-21T05:21:56;15.10;99.90
25652;DHT22;13508;50.734;4.232;2022-08-21T05:25:01;15.00;99.90
25652;DHT22;13508;50.734;4.232;2022-08-21T05:28:04;15.10;99.90
25652;DHT22;13508;50.734;4.232;2022-08-21T05:31:08;14.90;99.90
25652;DHT22;13508;50.734;4.232;2022-08-21T05:34:13;14.80;99.90
25652;DHT22;13508;50.734;4.232;2022-08-21T05:37:16;14.90;99.90
25652;DHT22;13508;50.734;4.232;2022-08-21T05:40:20;14.90;99.90
25652;DHT22;13508;50.734;4.232;2022-08-21T05:43:23;14.80;99.90
25652;DHT22;13508;50.734;4.232;2022-08-21T05:46:26;14.80;99.90
25652;DHT22;13508;50.734;4.232;2022-08-21T05:49:29;14.90;99.90
25652;DHT22;13508;50.734;4.232;2022-08-21T05:52:32;14.70;99.90
25652;DHT22;13508;50.734;4.232;2022-08-21T05:55:37;14.70;99.90
25652;DHT22;13508;50.734;4.232;2022-08-21T05:58:40;14.70;99.90
25652;DHT22;13508;50.734;4.232;2022-08-21T06:01:44;14.80;99.90
25652;DHT22;13508;50.734;4.232;2022-08-21T06:04:48;15.10;99.90
25652;DHT22;13508;50.734;4.232;2022-08-21T06:07:51;15.20;99.90
25652;DHT22;13508;50.734;4.232;2022-08-21T06:10:57;15.50;99.90
25652;DHT22;13508;50.734;4.232;2022-08-21T06:14:01;15.70;99.90
25652;DHT22;13508;50.734;4.232;2022-08-21T06:17:06;15.80;99.90
25652;DHT22;13508;50.734;4.232;2022-08-21T06:20:10;15.70;99.90
25652;DHT22;13508;50.734;4.232;2022-08-21T06:23:13;15.60;99.90
25652;DHT22;13508;50.734;4.232;2022-08-21T06:26:17;15.60;99.90
25652;DHT22;13508;50.734;4.232;2022-08-21T06:29:21;15.90;99.90
25652;DHT22;13508;50.734;4.232;2022-08-21T06:32:24;15.90;99.90
25652;DHT22;13508;50.734;4.232;2022-08-21T06:35:28;16.10;99.90
25652;DHT22;13508;50.734;4.232;2022-08-21T06:38:31;16.10;99.90
25652;DHT22;13508;50.734;4.232;2022-08-21T06:41:35;16.20;99.90
25652;DHT22;13508;50.734;4.232;2022-08-21T06:44:39;16.20;99.90
25652;DHT22;13508;50.734;4.232;2022-08-21T06:47:42;16.20;99.90
25652;DHT22;13508;50.734;4.232;2022-08-21T06:50:46;16.40;99.90
25652;DHT22;13508;50.734;4.232;2022-08-21T06:53:50;16.50;99.90
25652;DHT22;13508;50.734;4.232;2022-08-21T06:56:53;16.80;99.90
25652;DHT22;13508;50.734;4.232;2022-08-21T06:59:57;17.00;99.90
25652;DHT22;13508;50.734;4.232;2022-08-21T07:03:01;17.20;99.90
25652;DHT22;13508;50.734;4.232;2022-08-21T07:06:07;17.30;99.90
25652;DHT22;13508;50.734;4.232;2022-08-21T07:09:10;17.50;99.90
25652;DHT22;13508;50.734;4.232;2022-08-21T07:12:15;17.60;99.90
25652;DHT22;13508;50.734;4.232;2022-08-21T07:15:19;17.60;99.90
25652;DHT22;13508;50.734;4.232;2022-08-21T07:18:22;17.80;99.90
25652;DHT22;13508;50.734;4.232;2022-08-21T07:21:26;17.90;99.90
25652;DHT22;13508;50.734;4.232;2022-08-21T07:24:29;18.30;99.90
25652;DHT22;13508;50.734;4.232;2022-08-21T07:27:33;18.60;99.90
25652;DHT22;13508;50.734;4.232;2022-08-21T07:30:36;18.50;99.90
25652;DHT22;13508;50.734;4.232;2022-08-21T07:33:41;18.50;99.90
25652;DHT22;13508;50.734;4.232;2022-08-21T07:36:45;18.50;99.90
25652;DHT22;13508;50.734;4.232;2022-08-21T07:39:48;18.90;99.90
25652;DHT22;13508;50.734;4.232;2022-08-21T07:42:52;19.00;99.90
25652;DHT22;13508;50.734;4.232;2022-08-21T07:45:56;19.30;99.90
25652;DHT22;13508;50.734;4.232;2022-08-21T07:49:00;19.30;99.90
25652;DHT22;13508;50.734;4.232;2022-08-21T07:52:03;19.50;99.90
25652;DHT22;13508;50.734;4.232;2022-08-21T07:55:10;19.90;99.90
25652;DHT22;13508;50.734;4.232;2022-08-21T07:58:13;20.00;99.90
25652;DHT22;13508;50.734;4.232;2022-08-21T08:01:17;21.00;99.90
25652;DHT22;13508;50.734;4.232;2022-08-21T08:04:20;21.80;99.90
25652;DHT22;13508;50.734;4.232;2022-08-21T08:07:23;22.40;99.90
25652;DHT22;13508;50.734;4.232;2022-08-21T08:10:26;22.80;99.90
25652;DHT22;13508;50.734;4.232;2022-08-21T08:13:30;23.20;99.90
25652;DHT22;13508;50.734;4.232;2022-08-21T08:16:33;23.00;99.90
25652;DHT22;13508;50.734;4.232;2022-08-21T08:19:36;23.60;99.90
25652;DHT22;13508;50.734;4.232;2022-08-21T08:22:39;24.50;99.90
25652;DHT22;13508;50.734;4.232;2022-08-21T08:25:44;25.10;99.90
25652;DHT22;13508;50.734;4.232;2022-08-21T08:28:47;25.20;99.90
25652;DHT22;13508;50.734;4.232;2022-08-21T08:31:50;24.60;99.90
25652;DHT22;13508;50.734;4.232;2022-08-21T08:34:54;24.10;99.90
25652;DHT22;13508;50.734;4.232;2022-08-21T08:37:57;24.20;99.90
25652;DHT22;13508;50.734;4.232;2022-08-21T08:41:02;24.40;99.90
25652;DHT22;13508;50.734;4.232;2022-08-21T08:44:06;23.90;99.90
25652;DHT22;13508;50.734;4.232;2022-08-21T08:47:16;24.00;99.90
25652;DHT22;13508;50.734;4.232;2022-08-21T08:50:33;25.00;99.90
25652;DHT22;13508;50.734;4.232;2022-08-21T08:53:57;25.00;99.90
25652;DHT22;13508;50.734;4.232;2022-08-21T08:57:03;25.40;99.90
25652;DHT22;13508;50.734;4.232;2022-08-21T09:00:13;25.10;99.90
25652;DHT22;13508;50.734;4.232;2022-08-21T09:03:18;26.20;99.20
25652;DHT22;13508;50.734;4.232;2022-08-21T09:13:27;26.40;97.10
25652;DHT22;13508;50.734;4.232;2022-08-21T09:27:00;28.50;92.50
25652;DHT22;13508;50.734;4.232;2022-08-21T09:30:06;28.00;93.30
25652;DHT22;13508;50.734;4.232;2022-08-21T09:33:12;26.60;94.70
25652;DHT22;13508;50.734;4.232;2022-08-21T09:36:45;26.20;94.60
25652;DHT22;13508;50.734;4.232;2022-08-21T09:39:48;25.70;96.40
25652;DHT22;13508;50.734;4.232;2022-08-21T09:42:57;26.50;95.60
25652;DHT22;13508;50.734;4.232;2022-08-21T09:46:12;28.60;92.20
25652;DHT22;13508;50.734;4.232;2022-08-21T09:49:34;27.70;91.50
25652;DHT22;13508;50.734;4.232;2022-08-21T09:52:44;25.50;95.00
25652;DHT22;13508;50.734;4.232;2022-08-21T09:55:59;24.70;97.90
25652;DHT22;13508;50.734;4.232;2022-08-21T09:59:28;25.90;96.40
25652;DHT22;13508;50.734;4.232;2022-08-21T10:02:35;26.90;94.00
25652;DHT22;13508;50.734;4.232;2022-08-21T10:05:39;27.20;93.20
25652;DHT22;13508;50.734;4.232;2022-08-21T10:08:43;29.00;90.90
25652;DHT22;13508;50.734;4.232;2022-08-21T10:12:05;29.30;88.00
25652;DHT22;13508;50.734;4.232;2022-08-21T10:15:49;28.30;90.70
25652;DHT22;13508;50.734;4.232;2022-08-21T10:19:15;28.50;88.00
25652;DHT22;13508;50.734;4.232;2022-08-21T10:25:42;28.00;90.00
25652;DHT22;13508;50.734;4.232;2022-08-21T10:28:51;29.70;84.30
25652;DHT22;13508;50.734;4.232;2022-08-21T10:35:32;26.80;90.70
25652;DHT22;13508;50.734;4.232;2022-08-21T10:42:29;25.50;94.40
25652;DHT22;13508;50.734;4.232;2022-08-21T10:48:51;26.80;92.00
25652;DHT22;13508;50.734;4.232;2022-08-21T10:55:36;26.60;93.00
25652;DHT22;13508;50.734;4.232;2022-08-21T11:02:27;26.40;93.40
25652;DHT22;13508;50.734;4.232;2022-08-21T11:05:51;26.70;92.90
25652;DHT22;13508;50.734;4.232;2022-08-21T11:08:58;27.20;91.80
25652;DHT22;13508;50.734;4.232;2022-08-21T11:15:48;27.50;90.90
25652;DHT22;13508;50.734;4.232;2022-08-21T11:19:00;27.70;90.40
25652;DHT22;13508;50.734;4.232;2022-08-21T11:25:35;26.20;92.80
25652;DHT22;13508;50.734;4.232;2022-08-21T11:28:52;25.20;95.10
25652;DHT22;13508;50.734;4.232;2022-08-21T11:35:58;25.50;94.60
25652;DHT22;13508;50.734;4.232;2022-08-21T11:39:16;25.90;94.40
25652;DHT22;13508;50.734;4.232;2022-08-21T11:46:00;28.70;88.20
25652;DHT22;13508;50.734;4.232;2022-08-21T11:49:11;28.40;87.60
25652;DHT22;13508;50.734;4.232;2022-08-21T11:52:53;28.70;84.40
25652;DHT22;13508;50.734;4.232;2022-08-21T11:56:02;29.70;81.20
25652;DHT22;13508;50.734;4.232;2022-08-21T11:59:16;28.40;83.60
25652;DHT22;13508;50.734;4.232;2022-08-21T12:02:28;27.00;88.70
25652;DHT22;13508;50.734;4.232;2022-08-21T12:05:33;26.50;91.00
25652;DHT22;13508;50.734;4.232;2022-08-21T12:08:40;27.00;90.50
25652;DHT22;13508;50.734;4.232;2022-08-21T12:11:51;27.20;89.70
25652;DHT22;13508;50.734;4.232;2022-08-21T12:15:24;27.30;88.30
25652;DHT22;13508;50.734;4.232;2022-08-21T12:18:31;27.30;88.90
25652;DHT22;13508;50.734;4.232;2022-08-21T12:21:53;26.50;90.90
25652;DHT22;13508;50.734;4.232;2022-08-21T12:25:10;26.00;91.40
25652;DHT22;13508;50.734;4.232;2022-08-21T12:28:21;25.40;93.20
25652;DHT22;13508;50.734;4.232;2022-08-21T12:31:28;24.90;94.40
25652;DHT22;13508;50.734;4.232;2022-08-21T12:34:50;25.00;95.00
25652;DHT22;13508;50.734;4.232;2022-08-21T12:38:04;24.80;95.40
25652;DHT22;13508;50.734;4.232;2022-08-21T12:41:30;24.70;95.80
25652;DHT22;13508;50.734;4.232;2022-08-21T12:44:47;24.60;95.10
25652;DHT22;13508;50.734;4.232;2022-08-21T12:51:09;25.30;93.30
25652;DHT22;13508;50.734;4.232;2022-08-21T12:54:29;25.30;93.00
25652;DHT22;13508;50.734;4.232;2022-08-21T12:57:36;25.10;93.90
25652;DHT22;13508;50.734;4.232;2022-08-21T13:00:48;25.00;94.70
25652;DHT22;13508;50.734;4.232;2022-08-21T13:03:59;24.90;94.60
25652;DHT22;13508;50.734;4.232;2022-08-21T13:07:10;24.70;95.50
25652;DHT22;13508;50.734;4.232;2022-08-21T13:10:21;24.60;95.40
25652;DHT22;13508;50.734;4.232;2022-08-21T13:13:27;24.90;95.30
25652;DHT22;13508;50.734;4.232;2022-08-21T13:16:31;24.80;95.60
25652;DHT22;13508;50.734;4.232;2022-08-21T13:19:35;24.80;95.40
25652;DHT22;13508;50.734;4.232;2022-08-21T13:22:43;24.20;96.30
25652;DHT22;13508;50.734;4.232;2022-08-21T13:25:46;24.20;96.50
25652;DHT22;13508;50.734;4.232;2022-08-21T13:28:50;24.60;96.10
25652;DHT22;13508;50.734;4.232;2022-08-21T13:31:56;24.40;96.40
25652;DHT22;13508;50.734;4.232;2022-08-21T13:35:09;24.20;96.90
25652;DHT22;13508;50.734;4.232;2022-08-21T13:38:14;24.60;96.40
25652;DHT22;13508;50.734;4.232;2022-08-21T13:41:25;24.40;96.00
25652;DHT22;13508;50.734;4.232;2022-08-21T13:44:43;24.50;96.60
25652;DHT22;13508;50.734;4.232;2022-08-21T13:47:47;24.60;96.30
25652;DHT22;13508;50.734;4.232;2022-08-21T13:50:51;24.40;96.40
25652;DHT22;13508;50.734;4.232;2022-08-21T13:53:56;24.30;96.80
25652;DHT22;13508;50.734;4.232;2022-08-21T13:56:59;24.70;96.30
25652;DHT22;13508;50.734;4.232;2022-08-21T14:00:19;24.90;95.70
25652;DHT22;13508;50.734;4.232;2022-08-21T14:03:35;24.80;96.00
25652;DHT22;13508;50.734;4.232;2022-08-21T14:06:40;24.70;96.40
25652;DHT22;13508;50.734;4.232;2022-08-21T14:09:45;24.80;95.90
25652;DHT22;13508;50.734;4.232;2022-08-21T14:12:56;24.80;96.20
25652;DHT22;13508;50.734;4.232;2022-08-21T14:16:01;24.60;96.20
25652;DHT22;13508;50.734;4.232;2022-08-21T14:19:11;24.80;96.50
25652;DHT22;13508;50.734;4.232;2022-08-21T14:22:43;24.60;96.30
25652;DHT22;13508;50.734;4.232;2022-08-21T14:25:46;24.80;96.40
25652;DHT22;13508;50.734;4.232;2022-08-21T14:28:50;25.20;95.80
25652;DHT22;13508;50.734;4.232;2022-08-21T14:31:57;25.60;94.40
25652;DHT22;13508;50.734;4.232;2022-08-21T14:35:01;25.50;94.60
25652;DHT22;13508;50.734;4.232;2022-08-21T14:38:17;25.40;94.90
25652;DHT22;13508;50.734;4.232;2022-08-21T14:41:25;25.10;94.90
25652;DHT22;13508;50.734;4.232;2022-08-21T14:44:30;25.30;93.40
25652;DHT22;13508;50.734;4.232;2022-08-21T14:47:34;26.00;92.60
25652;DHT22;13508;50.734;4.232;2022-08-21T14:50:40;26.40;92.00
25652;DHT22;13508;50.734;4.232;2022-08-21T14:53:44;26.20;91.50
25652;DHT22;13508;50.734;4.232;2022-08-21T14:56:47;25.30;92.50
25652;DHT22;13508;50.734;4.232;2022-08-21T14:59:51;25.80;91.70
25652;DHT22;13508;50.734;4.232;2022-08-21T15:02:55;26.10;91.60
25652;DHT22;13508;50.734;4.232;2022-08-21T15:05:58;25.90;90.80
25652;DHT22;13508;50.734;4.232;2022-08-21T15:09:02;26.30;90.10
25652;DHT22;13508;50.734;4.232;2022-08-21T15:12:08;26.20;90.40
25652;DHT22;13508;50.734;4.232;2022-08-21T15:15:13;26.10;91.00
25652;DHT22;13508;50.734;4.232;2022-08-21T15:18:16;25.90;91.40
25652;DHT22;13508;50.734;4.232;2022-08-21T15:21:20;25.70;91.50
25652;DHT22;13508;50.734;4.232;2022-08-21T15:24:24;25.60;91.70
25652;DHT22;13508;50.734;4.232;2022-08-21T15:27:28;25.40;92.10
25652;DHT22;13508;50.734;4.232;2022-08-21T15:30:32;25.50;92.00
25652;DHT22;13508;50.734;4.232;2022-08-21T15:33:36;25.70;91.40
25652;DHT22;13508;50.734;4.232;2022-08-21T15:36:39;26.10;90.70
25652;DHT22;13508;50.734;4.232;2022-08-21T15:39:43;25.70;91.10
25652;DHT22;13508;50.734;4.232;2022-08-21T15:42:46;25.60;91.00
25652;DHT22;13508;50.734;4.232;2022-08-21T15:45:50;25.30;91.60
25652;DHT22;13508;50.734;4.232;2022-08-21T15:48:53;25.20;91.70
25652;DHT22;13508;50.734;4.232;2022-08-21T15:51:56;25.50;91.60
25652;DHT22;13508;50.734;4.232;2022-08-21T15:55:00;25.90;91.10
25652;DHT22;13508;50.734;4.232;2022-08-21T15:58:04;25.90;90.50
25652;DHT22;13508;50.734;4.232;2022-08-21T16:01:08;25.50;91.50
25652;DHT22;13508;50.734;4.232;2022-08-21T16:04:23;25.10;91.70
25652;DHT22;13508;50.734;4.232;2022-08-21T16:07:26;25.00;92.40
25652;DHT22;13508;50.734;4.232;2022-08-21T16:10:30;25.20;91.80
25652;DHT22;13508;50.734;4.232;2022-08-21T16:13:40;25.10;91.50
25652;DHT22;13508;50.734;4.232;2022-08-21T16:16:46;24.90;92.10
25652;DHT22;13508;50.734;4.232;2022-08-21T16:19:50;25.10;92.10
25652;DHT22;13508;50.734;4.232;2022-08-21T16:22:55;25.20;91.80
25652;DHT22;13508;50.734;4.232;2022-08-21T16:25:59;25.50;91.70
25652;DHT22;13508;50.734;4.232;2022-08-21T16:29:06;25.50;91.20
25652;DHT22;13508;50.734;4.232;2022-08-21T16:32:10;25.50;90.90
25652;DHT22;13508;50.734;4.232;2022-08-21T16:35:16;25.60;91.10
25652;DHT22;13508;50.734;4.232;2022-08-21T16:38:20;25.60;90.90
25652;DHT22;13508;50.734;4.232;2022-08-21T16:41:31;25.20;91.60
25652;DHT22;13508;50.734;4.232;2022-08-21T16:44:35;25.00;92.00
25652;DHT22;13508;50.734;4.232;2022-08-21T16:47:38;25.10;92.10
25652;DHT22;13508;50.734;4.232;2022-08-21T16:50:42;25.00;92.10
25652;DHT22;13508;50.734;4.232;2022-08-21T16:53:45;24.90;92.50
25652;DHT22;13508;50.734;4.232;2022-08-21T16:56:50;24.90;92.50
25652;DHT22;13508;50.734;4.232;2022-08-21T16:59:54;24.80;93.10
25652;DHT22;13508;50.734;4.232;2022-08-21T17:02:58;24.60;93.80
25652;DHT22;13508;50.734;4.232;2022-08-21T17:06:02;24.60;94.00
25652;DHT22;13508;50.734;4.232;2022-08-21T17:09:06;24.40;94.60
25652;DHT22;13508;50.734;4.232;2022-08-21T17:12:10;24.20;95.40
25652;DHT22;13508;50.734;4.232;2022-08-21T17:15:20;24.20;96.00
25652;DHT22;13508;50.734;4.232;2022-08-21T17:18:24;24.40;95.80
25652;DHT22;13508;50.734;4.232;2022-08-21T17:21:28;24.20;96.00
25652;DHT22;13508;50.734;4.232;2022-08-21T17:24:33;24.20;95.70
25652;DHT22;13508;50.734;4.232;2022-08-21T17:27:39;24.50;95.10
25652;DHT22;13508;50.734;4.232;2022-08-21T17:30:43;24.40;95.40
25652;DHT22;13508;50.734;4.232;2022-08-21T17:33:50;24.20;95.80
25652;DHT22;13508;50.734;4.232;2022-08-21T17:36:54;24.20;96.00
25652;DHT22;13508;50.734;4.232;2022-08-21T17:39:58;24.10;95.90
25652;DHT22;13508;50.734;4.232;2022-08-21T17:43:02;24.30;95.20
25652;DHT22;13508;50.734;4.232;2022-08-21T17:46:06;24.40;95.30
25652;DHT22;13508;50.734;4.232;2022-08-21T17:49:09;24.30;95.40
25652;DHT22;13508;50.734;4.232;2022-08-21T17:52:13;24.30;95.50
25652;DHT22;13508;50.734;4.232;2022-08-21T17:55:17;24.30;95.70
25652;DHT22;13508;50.734;4.232;2022-08-21T17:58:22;24.10;95.70
25652;DHT22;13508;50.734;4.232;2022-08-21T18:01:28;24.10;95.70
25652;DHT22;13508;50.734;4.232;2022-08-21T18:04:32;24.20;95.60
25652;DHT22;13508;50.734;4.232;2022-08-21T18:07:36;24.50;95.00
25652;DHT22;13508;50.734;4.232;2022-08-21T18:10:41;24.50;94.90
25652;DHT22;13508;50.734;4.232;2022-08-21T18:13:44;24.40;95.10
25652;DHT22;13508;50.734;4.232;2022-08-21T18:16:48;24.30;95.70
25652;DHT22;13508;50.734;4.232;2022-08-21T18:19:51;24.10;96.00
25652;DHT22;13508;50.734;4.232;2022-08-21T18:22:55;24.10;96.30
25652;DHT22;13508;50.734;4.232;2022-08-21T18:25:58;24.10;96.20
25652;DHT22;13508;50.734;4.232;2022-08-21T18:29:05;24.10;96.60
25652;DHT22;13508;50.734;4.232;2022-08-21T18:32:08;23.90;97.00
25652;DHT22;13508;50.734;4.232;2022-08-21T18:35:14;24.00;96.90
25652;DHT22;13508;50.734;4.232;2022-08-21T18:38:18;23.90;97.30
25652;DHT22;13508;50.734;4.232;2022-08-21T18:41:22;23.70;98.10
25652;DHT22;13508;50.734;4.232;2022-08-21T18:44:26;23.60;98.50
25652;DHT22;13508;50.734;4.232;2022-08-21T18:47:41;23.50;98.90
25652;DHT22;13508;50.734;4.232;2022-08-21T18:50:47;23.40;98.80
25652;DHT22;13508;50.734;4.232;2022-08-21T18:53:50;23.40;99.40
25652;DHT22;13508;50.734;4.232;2022-08-21T18:56:54;23.50;99.70
25652;DHT22;13508;50.734;4.232;2022-08-21T18:59:58;23.40;99.50
25652;DHT22;13508;50.734;4.232;2022-08-21T19:03:02;23.50;99.50
25652;DHT22;13508;50.734;4.232;2022-08-21T19:06:06;23.60;99.50
25652;DHT22;13508;50.734;4.232;2022-08-21T19:09:09;23.50;99.90
25652;DHT22;13508;50.734;4.232;2022-08-21T19:12:17;23.50;99.90
25652;DHT22;13508;50.734;4.232;2022-08-21T19:15:22;23.50;99.90
25652;DHT22;13508;50.734;4.232;2022-08-21T19:18:26;23.40;99.90
25652;DHT22;13508;50.734;4.232;2022-08-21T19:21:30;23.40;99.90
25652;DHT22;13508;50.734;4.232;2022-08-21T19:24:33;23.70;99.90
25652;DHT22;13508;50.734;4.232;2022-08-21T19:27:37;23.70;99.90
25652;DHT22;13508;50.734;4.232;2022-08-21T19:30:45;23.40;99.90
25652;DHT22;13508;50.734;4.232;2022-08-21T19:34:05;23.20;99.90
25652;DHT22;13508;50.734;4.232;2022-08-21T19:37:11;23.10;99.90
25652;DHT22;13508;50.734;4.232;2022-08-21T19:40:18;23.10;99.90
25652;DHT22;13508;50.734;4.232;2022-08-21T19:43:22;23.10;99.90
25652;DHT22;13508;50.734;4.232;2022-08-21T19:46:32;23.00;99.90
25652;DHT22;13508;50.734;4.232;2022-08-21T19:49:37;22.90;99.90
25652;DHT22;13508;50.734;4.232;2022-08-21T19:52:41;23.10;99.90
25652;DHT22;13508;50.734;4.232;2022-08-21T19:55:46;23.10;99.90
25652;DHT22;13508;50.734;4.232;2022-08-21T19:58:50;22.90;99.90
25652;DHT22;13508;50.734;4.232;2022-08-21T20:01:54;22.90;99.90
25652;DHT22;13508;50.734;4.232;2022-08-21T20:04:58;22.80;99.90
25652;DHT22;13508;50.734;4.232;2022-08-21T20:08:02;22.60;99.90
25652;DHT22;13508;50.734;4.232;2022-08-21T20:11:05;22.70;99.90
25652;DHT22;13508;50.734;4.232;2022-08-21T20:14:11;22.60;99.90
25652;DHT22;13508;50.734;4.232;2022-08-21T20:17:17;22.70;99.90
25652;DHT22;13508;50.734;4.232;2022-08-21T20:20:21;22.60;99.90
25652;DHT22;13508;50.734;4.232;2022-08-21T20:23:24;22.60;99.90
25652;DHT22;13508;50.734;4.232;2022-08-21T20:26:28;22.70;99.90
25652;DHT22;13508;50.734;4.232;2022-08-21T20:29:32;22.60;99.90
25652;DHT22;13508;50.734;4.232;2022-08-21T20:32:35;22.90;99.90